Terminal Aerodrome Forecast
Issued by NWS Paducah, KY

Home | Current Version | Previous Version | Graphics & Text | Print | Product List | Glossary On
Versions: 1 2 3 4 5 6 7 8 9 10 11 12 13 14 15 16 17 18
681
FTUS43 KPAH 251734
TAFPAH
TAF
KPAH 251734Z 2518/2618 12006KT P6SM -SHRA BKN028
      TEMPO 2518/2522 3SM TSRA BKN040CB
     FM260000 18006KT P6SM BKN050
     FM260900 19004KT 5SM BR BKN022
     FM261400 20010KT P6SM BKN040=

USA.gov is the U.S. government's official web portal to all federal, state and local government web resources and services.